Time;durP1;ratioP1;P1;durP2;ratioP2;P2;SDS_P1;SDS_P2;PMS_P1;PMS_P2;Temp;Humidity;BMP_temperature;BMP_pressure;BME280_temperature;BME280_humidity;BME280_pressure;Samples;Min_cycle;Max_cycle;Signal;HPM_P1;HPM_P2
2022/02/16 00:02:05;;;;;;;49.40;28.17;;;;;;;;;;5025678;28;20060;-50
2022/02/16 00:04:31;;;;;;;40.83;25.48;;;;;;;;;;5027237;28;20080;-49
2022/02/16 00:06:57;;;;;;;46.67;27.45;;;;;;;;;;5015856;28;20042;-49
2022/02/16 00:09:23;;;;;;;49.45;25.42;;;;;;;;;;5006821;28;20018;-49
2022/02/16 00:11:50;;;;;;;46.13;24.77;;;;;;;;;;4996091;28;20030;-49
2022/02/16 00:14:16;;;;;;;35.13;20.48;;;;;;;;;;4996220;28;20030;-50
2022/02/16 00:16:44;;;;;;;40.95;25.10;;;;;;;;;;4996256;28;20031;-48
2022/02/16 00:19:10;;;;;;;33.50;18.55;;;;;;;;;;4996457;28;20046;-49
2022/02/16 00:21:36;;;;;;;44.88;24.70;;;;;;;;;;4996172;28;20061;-49
2022/02/16 00:24:04;;;;;;;30.23;19.27;;;;;;;;;;4996114;28;20081;-48
2022/02/16 00:26:30;;;;;;;47.10;27.15;;;;;;;;;;4996580;28;20029;-49
2022/02/16 00:28:56;;;;;;;42.63;24.52;;;;;;;;;;4996297;28;20034;-49
2022/02/16 00:31:22;;;;;;;46.05;26.80;;;;;;;;;;4995895;28;20033;-50
2022/02/16 00:33:48;;;;;;;43.20;25.27;;;;;;;;;;4995700;28;20034;-48
2022/02/16 00:36:14;;;;;;;36.35;21.30;;;;;;;;;;4980378;28;20142;-49
2022/02/16 00:38:40;;;;;;;34.90;21.85;;;;;;;;;;4960928;28;20427;-48
2022/02/16 00:41:06;;;;;;;28.25;17.30;;;;;;;;;;4995996;28;20027;-48
2022/02/16 00:43:33;;;;;;;32.63;19.15;;;;;;;;;;4995544;28;20045;-48
2022/02/16 00:45:59;;;;;;;29.92;18.80;;;;;;;;;;4996017;28;20185;-47
2022/02/16 00:48:25;;;;;;;28.15;17.55;;;;;;;;;;4995291;28;20026;-49
2022/02/16 00:50:51;;;;;;;30.13;16.30;;;;;;;;;;4995753;28;20049;-47
2022/02/16 00:53:17;;;;;;;32.92;17.30;;;;;;;;;;4995132;28;20393;-47
2022/02/16 00:55:43;;;;;;;31.95;19.77;;;;;;;;;;4995656;28;20018;-47
2022/02/16 00:58:09;;;;;;;30.23;18.45;;;;;;;;;;4995301;28;20106;-47
2022/02/16 01:00:35;;;;;;;30.38;16.83;;;;;;;;;;4995495;28;20119;-47
2022/02/16 01:03:02;;;;;;;26.63;15.65;;;;;;;;;;4995150;28;20031;-47
2022/02/16 01:05:28;;;;;;;26.95;14.88;;;;;;;;;;4995215;28;20478;-49
2022/02/16 01:07:55;;;;;;;26.45;15.57;;;;;;;;;;4995087;28;20395;-47
2022/02/16 01:10:23;;;;;;;27.00;15.25;;;;;;;;;;4995001;28;20363;-48
2022/02/16 01:12:49;;;;;;;25.50;14.40;;;;;;;;;;4995071;28;20034;-47
2022/02/16 01:15:20;;;;;;;23.05;14.13;;;;;;;;;;4995288;28;20027;-49
2022/02/16 01:17:46;;;;;;;22.50;13.32;;;;;;;;;;4994399;28;20023;-47
2022/02/16 01:20:13;;;;;;;21.73;13.25;;;;;;;;;;4994541;28;20022;-47
2022/02/16 01:22:41;;;;;;;19.20;13.73;;;;;;;;;;4994491;28;20522;-47
2022/02/16 01:25:07;;;;;;;19.90;12.70;;;;;;;;;;4994555;28;20029;-48
2022/02/16 01:27:33;;;;;;;21.30;13.38;;;;;;;;;;4994638;28;20030;-48
2022/02/16 01:29:59;;;;;;;18.48;13.13;;;;;;;;;;4994993;28;20029;-48
2022/02/16 01:32:25;;;;;;;19.67;12.95;;;;;;;;;;4994448;28;20386;-47
2022/02/16 01:34:51;;;;;;;19.08;11.43;;;;;;;;;;4998767;28;20046;-48
2022/02/16 01:37:18;;;;;;;25.98;15.95;;;;;;;;;;5014249;28;20478;-48
2022/02/16 01:39:44;;;;;;;17.00;10.70;;;;;;;;;;5003228;28;20026;-47
2022/02/16 01:42:15;;;;;;;19.25;12.75;;;;;;;;;;4994411;28;20037;-47
2022/02/16 01:44:41;;;;;;;19.05;11.57;;;;;;;;;;4994775;28;20030;-48
2022/02/16 01:47:09;;;;;;;18.67;10.93;;;;;;;;;;4994091;28;20124;-47
2022/02/16 01:49:36;;;;;;;20.02;11.35;;;;;;;;;;4994754;28;20474;-47
2022/02/16 01:52:02;;;;;;;20.73;11.43;;;;;;;;;;4994271;28;20081;-47
2022/02/16 01:54:28;;;;;;;23.65;12.73;;;;;;;;;;4994231;28;20029;-47
2022/02/16 01:56:55;;;;;;;18.00;12.32;;;;;;;;;;4994262;28;20110;-48
2022/02/16 01:59:22;;;;;;;21.02;12.88;;;;;;;;;;4994186;28;20022;-48
2022/02/16 02:01:48;;;;;;;17.55;12.05;;;;;;;;;;4994087;28;20065;-48
2022/02/16 02:04:15;;;;;;;18.52;12.43;;;;;;;;;;4993845;28;20027;-48
2022/02/16 02:06:41;;;;;;;21.45;14.20;;;;;;;;;;4994082;28;20042;-47
2022/02/16 02:09:07;;;;;;;19.00;12.10;;;;;;;;;;4993860;28;20029;-47
2022/02/16 02:11:33;;;;;;;26.23;15.57;;;;;;;;;;4994025;28;20027;-48
2022/02/16 02:14:00;;;;;;;28.30;14.75;;;;;;;;;;4993906;28;20026;-48
2022/02/16 02:16:27;;;;;;;20.73;13.60;;;;;;;;;;4994440;28;20022;-48
2022/02/16 02:18:53;;;;;;;25.27;15.70;;;;;;;;;;4993998;28;20443;-48
2022/02/16 02:21:22;;;;;;;21.88;13.05;;;;;;;;;;4994220;28;20027;-47
2022/02/16 02:23:49;;;;;;;20.23;13.60;;;;;;;;;;4993651;28;20018;-46
2022/02/16 02:26:19;;;;;;;24.42;15.07;;;;;;;;;;4993958;28;20470;-48
2022/02/16 02:28:46;;;;;;;25.10;13.68;;;;;;;;;;4993731;28;20022;-49
2022/02/16 02:31:12;;;;;;;21.90;12.70;;;;;;;;;;4994174;28;20029;-48
2022/02/16 02:33:39;;;;;;;20.25;13.07;;;;;;;;;;4993575;28;20050;-48
2022/02/16 02:36:08;;;;;;;19.70;13.55;;;;;;;;;;5008205;28;20074;-54
2022/02/16 02:38:38;;;;;;;22.27;13.93;;;;;;;;;;5013216;28;20041;-59
2022/02/16 02:41:08;;;;;;;23.98;16.30;;;;;;;;;;5013523;28;20022;-50
2022/02/16 02:43:39;;;;;;;24.50;17.52;;;;;;;;;;5012932;28;20510;-49
2022/02/16 02:46:05;;;;;;;22.95;14.48;;;;;;;;;;5013286;28;20557;-50
2022/02/16 02:48:31;;;;;;;25.75;15.77;;;;;;;;;;5013317;28;20029;-50
2022/02/16 02:50:59;;;;;;;26.48;16.13;;;;;;;;;;5013342;28;20109;-50
2022/02/16 02:53:25;;;;;;;27.33;15.20;;;;;;;;;;5013137;28;20033;-48
2022/02/16 02:55:52;;;;;;;25.60;16.10;;;;;;;;;;5013479;28;20105;-50
2022/02/16 02:58:18;;;;;;;28.65;18.00;;;;;;;;;;5013146;28;20030;-47
2022/02/16 03:00:44;;;;;;;22.75;14.98;;;;;;;;;;5013526;28;20022;-48
2022/02/16 03:03:12;;;;;;;24.02;14.18;;;;;;;;;;5013317;28;20113;-49
2022/02/16 03:05:40;;;;;;;18.75;14.00;;;;;;;;;;5013213;28;20037;-48
2022/02/16 03:08:07;;;;;;;19.98;13.20;;;;;;;;;;5012826;28;20149;-48
2022/02/16 03:10:33;;;;;;;22.23;13.85;;;;;;;;;;4996031;28;20453;-51
2022/02/16 03:12:59;;;;;;;29.15;17.05;;;;;;;;;;4993182;28;20471;-50
2022/02/16 03:15:25;;;;;;;22.67;14.38;;;;;;;;;;4993600;28;20031;-46
2022/02/16 03:17:52;;;;;;;28.35;15.95;;;;;;;;;;4995914;28;20080;-50
2022/02/16 03:20:18;;;;;;;23.85;15.63;;;;;;;;;;4997183;28;20113;-47
2022/02/16 03:22:44;;;;;;;26.40;15.95;;;;;;;;;;4996977;28;20026;-46
2022/02/16 03:25:11;;;;;;;31.65;16.73;;;;;;;;;;4997082;28;20030;-46
2022/02/16 03:27:38;;;;;;;24.42;15.27;;;;;;;;;;4996742;28;20034;-46
2022/02/16 03:30:06;;;;;;;28.75;17.13;;;;;;;;;;4997188;28;20050;-47
2022/02/16 03:32:32;;;;;;;28.17;16.77;;;;;;;;;;4996916;28;20034;-47
2022/02/16 03:35:00;;;;;;;22.98;15.63;;;;;;;;;;5006432;28;20121;-47
2022/02/16 03:37:26;;;;;;;24.98;15.25;;;;;;;;;;5016673;28;20516;-49
2022/02/16 03:39:52;;;;;;;24.50;15.30;;;;;;;;;;5005016;28;20033;-47
2022/02/16 03:42:19;;;;;;;22.67;15.57;;;;;;;;;;4996637;28;20069;-46
2022/02/16 03:44:46;;;;;;;23.40;14.43;;;;;;;;;;4996787;28;20466;-47
2022/02/16 03:47:12;;;;;;;23.80;15.43;;;;;;;;;;4996399;28;20022;-49
2022/02/16 03:49:42;;;;;;;26.35;17.05;;;;;;;;;;4996712;28;20029;-50
2022/02/16 03:52:08;;;;;;;26.17;16.38;;;;;;;;;;4996578;28;20482;-51
2022/02/16 03:54:34;;;;;;;29.02;16.88;;;;;;;;;;4996514;28;20081;-49
2022/02/16 03:57:00;;;;;;;31.75;19.48;;;;;;;;;;4996577;28;20015;-50
2022/02/16 03:59:26;;;;;;;34.60;21.90;;;;;;;;;;4996508;28;20030;-49
2022/02/16 04:01:52;;;;;;;38.67;24.08;;;;;;;;;;4996359;28;20566;-49
2022/02/16 04:04:21;;;;;;;26.35;17.73;;;;;;;;;;4996508;28;20034;-47
2022/02/16 04:06:47;;;;;;;27.25;16.45;;;;;;;;;;4996225;28;20034;-47
2022/02/16 04:09:14;;;;;;;27.02;16.92;;;;;;;;;;4990352;28;20027;-49
2022/02/16 04:11:41;;;;;;;27.52;17.20;;;;;;;;;;4976628;28;20069;-48
2022/02/16 04:14:07;;;;;;;26.25;16.35;;;;;;;;;;4976945;28;20042;-51
2022/02/16 04:16:33;;;;;;;28.95;17.45;;;;;;;;;;4977075;28;20079;-49
2022/02/16 04:19:01;;;;;;;30.38;17.00;;;;;;;;;;4976632;28;20524;-48
2022/02/16 04:21:27;;;;;;;25.13;18.48;;;;;;;;;;4976755;28;20034;-48
2022/02/16 04:23:53;;;;;;;21.60;14.45;;;;;;;;;;4976356;28;20026;-49
2022/02/16 04:26:19;;;;;;;23.35;13.75;;;;;;;;;;4976642;28;20027;-48
2022/02/16 04:28:45;;;;;;;19.45;13.13;;;;;;;;;;4975958;28;20031;-50
2022/02/16 04:31:11;;;;;;;18.83;12.43;;;;;;;;;;4976490;28;20019;-46
2022/02/16 04:33:37;;;;;;;19.60;12.20;;;;;;;;;;4976218;28;20054;-50
2022/02/16 04:36:04;;;;;;;18.70;11.38;;;;;;;;;;4976255;28;20101;-49
2022/02/16 04:38:30;;;;;;;19.15;12.35;;;;;;;;;;4976259;28;20109;-46
2022/02/16 04:40:56;;;;;;;20.35;12.65;;;;;;;;;;4976316;28;20030;-49
2022/02/16 04:43:23;;;;;;;19.33;11.65;;;;;;;;;;4976069;28;20034;-48
2022/02/16 04:45:49;;;;;;;22.08;12.85;;;;;;;;;;4976367;28;20371;-49
2022/02/16 04:48:16;;;;;;;15.90;12.18;;;;;;;;;;4975849;28;20122;-50
2022/02/16 04:50:42;;;;;;;21.13;13.63;;;;;;;;;;4959466;28;20022;-47
2022/02/16 04:53:09;;;;;;;20.35;12.65;;;;;;;;;;4975899;28;20038;-50
2022/02/16 04:55:37;;;;;;;17.10;12.85;;;;;;;;;;4975884;28;20448;-48
2022/02/16 04:58:03;;;;;;;19.27;12.40;;;;;;;;;;4975837;28;20034;-46
2022/02/16 05:00:30;;;;;;;18.83;14.18;;;;;;;;;;4976203;28;20460;-46
2022/02/16 05:02:58;;;;;;;21.75;14.15;;;;;;;;;;4975789;28;20059;-45
2022/02/16 05:05:24;;;;;;;16.45;12.07;;;;;;;;;;4976062;28;20048;-46
2022/02/16 05:07:50;;;;;;;23.15;15.80;;;;;;;;;;4975505;28;20121;-46
2022/02/16 05:10:16;;;;;;;24.98;15.70;;;;;;;;;;4989650;28;20018;-47
2022/02/16 05:12:42;;;;;;;26.33;16.05;;;;;;;;;;4994888;28;20030;-49
2022/02/16 05:15:11;;;;;;;23.52;15.73;;;;;;;;;;4995452;28;20022;-48
2022/02/16 05:17:37;;;;;;;26.70;17.85;;;;;;;;;;4994789;28;20019;-51
2022/02/16 05:20:06;;;;;;;33.53;20.33;;;;;;;;;;4995421;28;20393;-48
2022/02/16 05:22:32;;;;;;;30.85;20.00;;;;;;;;;;4995040;28;20053;-46
2022/02/16 05:25:00;;;;;;;30.20;18.65;;;;;;;;;;4995052;28;20386;-49
2022/02/16 05:27:27;;;;;;;23.92;16.40;;;;;;;;;;4994720;28;20067;-47
2022/02/16 05:29:53;;;;;;;23.27;15.15;;;;;;;;;;4994883;28;20109;-48
2022/02/16 05:32:19;;;;;;;21.70;14.82;;;;;;;;;;4994768;28;20076;-48
2022/02/16 05:34:45;;;;;;;23.17;14.85;;;;;;;;;;4997759;28;20137;-46
2022/02/16 05:37:11;;;;;;;26.77;15.35;;;;;;;;;;5014394;28;20105;-46
2022/02/16 05:39:37;;;;;;;24.77;16.23;;;;;;;;;;5004428;28;20545;-46
2022/02/16 05:42:04;;;;;;;26.40;15.98;;;;;;;;;;4994394;28;20053;-49
2022/02/16 05:44:30;;;;;;;32.15;18.92;;;;;;;;;;4994734;28;20023;-49
2022/02/16 05:46:56;;;;;;;25.35;15.55;;;;;;;;;;4994265;28;20105;-49
2022/02/16 05:49:22;;;;;;;22.90;15.75;;;;;;;;;;4994638;28;20022;-47
2022/02/16 05:51:48;;;;;;;21.30;14.68;;;;;;;;;;4994358;28;20398;-48
2022/02/16 05:54:14;;;;;;;18.98;13.70;;;;;;;;;;4994370;28;20035;-47
2022/02/16 05:56:40;;;;;;;23.55;14.40;;;;;;;;;;4994174;28;20093;-47
2022/02/16 05:59:06;;;;;;;21.55;13.38;;;;;;;;;;4994618;28;20356;-48
2022/02/16 06:01:33;;;;;;;20.50;13.65;;;;;;;;;;4994418;28;20058;-47
2022/02/16 06:04:01;;;;;;;20.90;13.00;;;;;;;;;;4994159;28;20172;-48
2022/02/16 06:06:27;;;;;;;19.60;13.52;;;;;;;;;;4994210;28;20058;-47
2022/02/16 06:08:53;;;;;;;19.15;13.27;;;;;;;;;;4993874;28;20030;-48
2022/02/16 06:11:19;;;;;;;17.08;13.20;;;;;;;;;;4994059;28;20486;-50
2022/02/16 06:13:46;;;;;;;21.20;15.05;;;;;;;;;;4994233;28;20109;-53
2022/02/16 06:16:12;;;;;;;22.27;14.32;;;;;;;;;;4994501;28;20080;-52
2022/02/16 06:18:38;;;;;;;24.17;15.38;;;;;;;;;;4994224;28;20498;-51
2022/02/16 06:21:06;;;;;;;20.83;15.15;;;;;;;;;;4994190;28;20057;-48
2022/02/16 06:23:32;;;;;;;23.95;15.25;;;;;;;;;;4993862;28;20034;-51
2022/02/16 06:25:59;;;;;;;23.83;16.20;;;;;;;;;;4993929;28;20038;-50
2022/02/16 06:28:25;;;;;;;30.58;19.27;;;;;;;;;;4993619;28;20351;-50
2022/02/16 06:30:51;;;;;;;33.97;19.58;;;;;;;;;;4994043;28;20022;-47
2022/02/16 06:33:18;;;;;;;32.20;20.98;;;;;;;;;;4993354;28;20039;-49
2022/02/16 06:35:44;;;;;;;36.55;20.63;;;;;;;;;;5005226;28;20058;-50
2022/02/16 06:38:12;;;;;;;36.47;21.13;;;;;;;;;;5013389;28;20026;-49
2022/02/16 06:40:39;;;;;;;30.45;20.10;;;;;;;;;;5013244;28;20027;-50
2022/02/16 06:43:05;;;;;;;31.42;19.30;;;;;;;;;;5013181;28;20057;-49
2022/02/16 06:45:31;;;;;;;28.92;19.10;;;;;;;;;;5013593;28;20377;-50
2022/02/16 06:47:57;;;;;;;29.02;18.80;;;;;;;;;;5013127;28;20398;-49
2022/02/16 06:50:23;;;;;;;23.58;17.33;;;;;;;;;;5013758;28;20100;-48
2022/02/16 06:52:49;;;;;;;29.23;19.92;;;;;;;;;;5017032;28;20033;-47
2022/02/16 06:55:16;;;;;;;29.40;19.38;;;;;;;;;;5017335;28;20037;-48
2022/02/16 06:57:42;;;;;;;27.20;18.23;;;;;;;;;;5017084;28;20030;-49
2022/02/16 07:00:08;;;;;;;29.23;18.23;;;;;;;;;;5017297;28;20022;-50
2022/02/16 07:02:41;;;;;;;31.90;18.98;;;;;;;;;;5017114;28;20109;-47
2022/02/16 07:05:10;;;;;;;29.58;18.73;;;;;;;;;;5016917;28;20037;-49
2022/02/16 07:07:36;;;;;;;30.52;17.52;;;;;;;;;;5016980;28;20034;-51
2022/02/16 07:10:02;;;;;;;30.45;20.25;;;;;;;;;;5016889;28;20026;-50
2022/02/16 07:12:28;;;;;;;30.75;21.45;;;;;;;;;;5016822;28;20034;-49
2022/02/16 07:14:56;;;;;;;39.58;24.23;;;;;;;;;;5017000;28;20440;-51
2022/02/16 07:17:22;;;;;;;75.88;47.45;;;;;;;;;;5016652;28;20105;-52
2022/02/16 07:19:48;;;;;;;56.10;35.92;;;;;;;;;;5017050;28;20109;-51
2022/02/16 07:22:19;;;;;;;53.08;34.03;;;;;;;;;;5016690;28;20042;-51
2022/02/16 07:24:46;;;;;;;36.57;23.17;;;;;;;;;;5016675;28;20156;-51
2022/02/16 07:27:13;;;;;;;38.00;24.35;;;;;;;;;;5016497;28;20259;-52
2022/02/16 07:29:39;;;;;;;39.20;23.27;;;;;;;;;;5016830;28;20363;-52
2022/02/16 07:32:12;;;;;;;37.63;24.55;;;;;;;;;;5016656;28;20470;-50
2022/02/16 07:34:38;;;;;;;45.88;24.92;;;;;;;;;;5016325;28;20057;-52
2022/02/16 07:37:06;;;;;;;59.47;36.88;;;;;;;;;;5016416;28;20029;-52
2022/02/16 07:39:33;;;;;;;58.22;35.25;;;;;;;;;;5016383;28;20140;-51
2022/02/16 07:42:00;;;;;;;44.25;25.67;;;;;;;;;;5016095;28;20488;-52
2022/02/16 07:44:26;;;;;;;43.13;27.38;;;;;;;;;;5016386;28;20030;-55
2022/02/16 07:46:52;;;;;;;39.20;23.63;;;;;;;;;;5016037;28;20022;-52
2022/02/16 07:49:18;;;;;;;37.50;22.83;;;;;;;;;;5016360;28;20034;-53
2022/02/16 07:51:44;;;;;;;37.42;25.65;;;;;;;;;;5015873;28;20033;-50
2022/02/16 07:54:10;;;;;;;41.42;25.42;;;;;;;;;;5016282;28;20113;-51
2022/02/16 07:56:36;;;;;;;41.03;22.88;;;;;;;;;;5016144;28;20022;-58
2022/02/16 07:59:02;;;;;;;38.72;25.10;;;;;;;;;;5016670;28;20037;-53
2022/02/16 08:01:29;;;;;;;31.23;20.42;;;;;;;;;;5016175;28;20156;-55
2022/02/16 08:04:15;;;;;;;32.40;21.70;;;;;;;;;;5014952;28;20029;-52
2022/02/16 08:06:41;;;;;;;31.23;22.15;;;;;;;;;;5015339;28;20044;-52
2022/02/16 08:09:10;;;;;;;33.67;24.20;;;;;;;;;;5026067;28;20030;-52
2022/02/16 08:11:36;;;;;;;40.22;26.75;;;;;;;;;;5024885;28;20478;-53
2022/02/16 08:14:06;;;;;;;38.00;27.75;;;;;;;;;;5024411;28;20064;-53
2022/02/16 08:16:33;;;;;;;38.95;26.58;;;;;;;;;;5024627;28;20025;-53
2022/02/16 08:18:59;;;;;;;46.30;32.42;;;;;;;;;;5024802;28;20021;-52
2022/02/16 08:21:25;;;;;;;49.15;35.20;;;;;;;;;;5026110;28;20036;-52
2022/02/16 08:23:51;;;;;;;53.55;35.75;;;;;;;;;;5024123;28;20413;-53
2022/02/16 08:26:17;;;;;;;44.05;33.42;;;;;;;;;;5025087;28;20013;-56
2022/02/16 08:28:46;;;;;;;56.80;39.28;;;;;;;;;;5025632;28;20037;-54
2022/02/16 08:31:12;;;;;;;75.93;48.25;;;;;;;;;;5025780;28;20512;-54
2022/02/16 08:33:38;;;;;;;68.35;45.60;;;;;;;;;;5024616;28;20343;-55
2022/02/16 08:36:05;;;;;;;63.83;43.63;;;;;;;;;;5009715;28;20510;-55
2022/02/16 08:38:31;;;;;;;49.72;36.63;;;;;;;;;;5001585;28;20578;-55
2022/02/16 08:40:57;;;;;;;71.22;51.33;;;;;;;;;;5005157;28;20103;-54
2022/02/16 08:43:24;;;;;;;70.10;46.10;;;;;;;;;;5004074;28;20440;-55
2022/02/16 08:45:50;;;;;;;45.28;33.15;;;;;;;;;;5005831;28;20462;-56
2022/02/16 08:48:16;;;;;;;42.63;31.02;;;;;;;;;;5004397;28;20073;-55
2022/02/16 08:50:44;;;;;;;37.10;28.95;;;;;;;;;;4999692;28;20030;-57
2022/02/16 08:53:10;;;;;;;41.13;31.52;;;;;;;;;;4985697;28;20041;-57
2022/02/16 08:55:36;;;;;;;43.53;32.67;;;;;;;;;;4988830;28;20026;-55
2022/02/16 08:58:02;;;;;;;53.28;31.00;;;;;;;;;;4995369;28;20034;-55
2022/02/16 09:00:29;;;;;;;62.25;42.08;;;;;;;;;;4995595;28;20418;-54
2022/02/16 09:02:55;;;;;;;55.22;37.42;;;;;;;;;;4995314;28;20037;-54
2022/02/16 09:05:21;;;;;;;43.72;31.67;;;;;;;;;;4997657;28;20038;-53
2022/02/16 09:07:47;;;;;;;47.17;33.60;;;;;;;;;;5003109;28;20018;-53
2022/02/16 09:10:13;;;;;;;43.53;31.48;;;;;;;;;;5002364;28;20028;-54
2022/02/16 09:12:42;;;;;;;51.60;37.72;;;;;;;;;;5004654;28;20411;-54
2022/02/16 09:15:08;;;;;;;64.43;43.97;;;;;;;;;;5005233;28;20049;-54
2022/02/16 09:17:34;;;;;;;49.95;33.53;;;;;;;;;;5004468;28;20023;-54
2022/02/16 09:20:00;;;;;;;84.20;52.88;;;;;;;;;;5003299;28;20061;-55
2022/02/16 09:22:27;;;;;;;66.97;46.15;;;;;;;;;;5004927;28;20094;-52
2022/02/16 09:24:53;;;;;;;49.40;36.75;;;;;;;;;;5004248;28;20022;-55
2022/02/16 09:27:19;;;;;;;58.15;41.22;;;;;;;;;;5002915;28;20017;-55
2022/02/16 09:29:46;;;;;;;43.15;32.33;;;;;;;;;;5005144;28;20080;-55
2022/02/16 09:32:13;;;;;;;67.00;41.55;;;;;;;;;;5004032;28;20398;-54
2022/02/16 09:34:39;;;;;;;83.90;54.05;;;;;;;;;;5002541;28;20045;-55
2022/02/16 09:37:06;;;;;;;62.78;42.70;;;;;;;;;;5000376;28;20022;-54
2022/02/16 09:39:32;;;;;;;57.83;38.65;;;;;;;;;;5003921;28;20088;-53
2022/02/16 09:41:59;;;;;;;52.63;34.70;;;;;;;;;;5003703;28;20469;-54
2022/02/16 09:44:35;;;;;;;42.95;29.27;;;;;;;;;;4969607;28;20049;-57
2022/02/16 09:47:03;;;;;;;40.08;27.38;;;;;;;;;;4966312;28;20027;-56
2022/02/16 09:49:31;;;;;;;38.35;29.25;;;;;;;;;;4966550;28;20030;-54
2022/02/16 09:51:58;;;;;;;46.30;34.20;;;;;;;;;;4966673;28;20094;-55
2022/02/16 09:54:24;;;;;;;46.83;35.83;;;;;;;;;;4966784;28;20034;-57
2022/02/16 09:56:50;;;;;;;38.28;29.42;;;;;;;;;;4966663;28;20022;-56
2022/02/16 09:59:16;;;;;;;48.30;33.20;;;;;;;;;;4966598;28;20113;-60
2022/02/16 10:01:52;;;;;;;52.47;33.80;;;;;;;;;;4966578;28;20453;-55
2022/02/16 10:04:18;;;;;;;47.53;35.10;;;;;;;;;;4966443;28;20030;-56
2022/02/16 10:06:45;;;;;;;43.88;31.10;;;;;;;;;;4966430;28;20026;-56
2022/02/16 10:09:23;;;;;;;41.72;30.35;;;;;;;;;;4966374;28;20299;-58
2022/02/16 10:11:54;;;;;;;35.03;24.42;;;;;;;;;;4965992;28;20037;-56
2022/02/16 10:14:24;;;;;;;39.08;29.02;;;;;;;;;;4966220;28;20136;-57
2022/02/16 10:16:50;;;;;;;75.03;48.05;;;;;;;;;;4966387;28;20050;-61
2022/02/16 10:19:16;;;;;;;46.45;32.58;;;;;;;;;;4966111;28;20104;-55
2022/02/16 10:21:59;;;;;;;80.78;56.42;;;;;;;;;;4966476;28;20053;-54
2022/02/16 10:24:25;;;;;;;51.50;37.42;;;;;;;;;;4965854;28;20080;-57
2022/02/16 10:26:52;;;;;;;41.67;28.27;;;;;;;;;;4965575;28;20109;-57
2022/02/16 10:29:19;;;;;;;36.33;25.27;;;;;;;;;;4965823;28;20465;-55
2022/02/16 10:31:45;;;;;;;39.70;28.73;;;;;;;;;;4966110;28;20161;-57
2022/02/16 10:34:11;;;;;;;45.58;32.85;;;;;;;;;;4965813;28;20042;-54
2022/02/16 10:36:37;;;;;;;42.55;30.35;;;;;;;;;;4965883;28;20499;-56
2022/02/16 10:39:11;;;;;;;36.20;22.63;;;;;;;;;;4966229;28;20044;-55
2022/02/16 10:41:41;;;;;;;45.45;22.80;;;;;;;;;;4966072;28;20058;-55
2022/02/16 10:44:16;;;;;;;37.08;24.88;;;;;;;;;;4966013;28;20033;-55
2022/02/16 10:46:42;;;;;;;34.10;21.23;;;;;;;;;;4965907;28;20085;-54
2022/02/16 10:49:09;;;;;;;31.65;22.38;;;;;;;;;;4966253;28;20312;-55
2022/02/16 10:51:36;;;;;;;30.88;22.05;;;;;;;;;;4965925;28;20125;-55
2022/02/16 10:54:14;;;;;;;28.00;21.13;;;;;;;;;;4965999;28;20526;-53
2022/02/16 10:56:41;;;;;;;28.48;22.63;;;;;;;;;;4965263;28;20912;-54
2022/02/16 10:59:08;;;;;;;27.13;20.67;;;;;;;;;;4965936;28;20030;-53
2022/02/16 11:01:38;;;;;;;42.65;31.05;;;;;;;;;;4965498;28;20034;-54
2022/02/16 11:04:07;;;;;;;37.00;25.65;;;;;;;;;;4965452;28;20035;-55
2022/02/16 11:06:42;;;;;;;24.55;18.02;;;;;;;;;;4965394;28;20157;-54
2022/02/16 11:09:10;;;;;;;32.70;21.63;;;;;;;;;;4965435;28;20030;-55
2022/02/16 11:11:41;;;;;;;24.92;20.13;;;;;;;;;;4965760;28;20085;-55
2022/02/16 11:14:07;;;;;;;43.53;29.45;;;;;;;;;;4965297;28;20047;-55
2022/02/16 11:16:33;;;;;;;25.48;19.80;;;;;;;;;;4965070;28;20034;-55
2022/02/16 11:19:01;;;;;;;25.60;17.42;;;;;;;;;;4966353;28;20154;-56
2022/02/16 11:21:31;;;;;;;22.10;15.02;;;;;;;;;;4966528;28;20053;-55
2022/02/16 11:23:58;;;;;;;36.03;23.13;;;;;;;;;;4965929;28;20031;-54
2022/02/16 11:26:24;;;;;;;15.15;12.43;;;;;;;;;;4966456;28;20030;-53
2022/02/16 11:28:51;;;;;;;42.45;28.92;;;;;;;;;;4965341;28;20490;-53
2022/02/16 11:31:29;;;;;;;20.23;14.45;;;;;;;;;;4966113;28;20708;-55
2022/02/16 11:34:13;;;;;;;18.63;14.85;;;;;;;;;;4989633;28;20042;-52
2022/02/16 11:36:56;;;;;;;20.50;14.35;;;;;;;;;;5000587;28;20060;-51
2022/02/16 11:39:42;;;;;;;17.00;13.30;;;;;;;;;;5004962;28;20430;-53
2022/02/16 11:42:16;;;;;;;16.38;12.90;;;;;;;;;;5005800;28;20026;-52
2022/02/16 11:44:51;;;;;;;15.43;11.82;;;;;;;;;;5005855;28;20026;-52
2022/02/16 11:47:36;;;;;;;17.02;12.57;;;;;;;;;;5003500;28;20026;-52
2022/02/16 11:50:12;;;;;;;17.98;13.13;;;;;;;;;;5005122;28;20025;-53
2022/02/16 11:52:40;;;;;;;29.05;19.88;;;;;;;;;;5004044;28;20027;-52
2022/02/16 11:55:07;;;;;;;20.48;14.27;;;;;;;;;;5005217;28;20033;-54
2022/02/16 11:57:38;;;;;;;21.75;15.65;;;;;;;;;;5002232;28;20022;-50
2022/02/16 12:00:26;;;;;;;18.92;13.27;;;;;;;;;;5005381;28;20022;-51
2022/02/16 12:02:59;;;;;;;21.83;14.35;;;;;;;;;;5006620;28;20014;-54
2022/02/16 12:05:56;;;;;;;40.83;27.23;;;;;;;;;;5005649;28;20034;-53
2022/02/16 12:08:36;;;;;;;33.95;23.40;;;;;;;;;;5004352;28;20083;-53
2022/02/16 12:11:08;;;;;;;32.10;21.73;;;;;;;;;;5004325;28;20084;-52
2022/02/16 12:13:34;;;;;;;19.13;14.95;;;;;;;;;;5001959;28;20068;-53
2022/02/16 12:16:10;;;;;;;23.58;17.15;;;;;;;;;;5005669;28;20442;-53
2022/02/16 12:18:37;;;;;;;17.65;12.98;;;;;;;;;;5002731;28;20113;-53
2022/02/16 12:21:04;;;;;;;24.70;17.52;;;;;;;;;;5004863;28;20026;-53
2022/02/16 12:23:35;;;;;;;21.67;16.45;;;;;;;;;;4998082;28;20387;-54
2022/02/16 12:26:07;;;;;;;78.72;27.98;;;;;;;;;;4996086;28;20390;-52
2022/02/16 12:28:45;;;;;;;68.70;28.50;;;;;;;;;;4995608;28;20375;-52
2022/02/16 12:31:14;;;;;;;26.73;16.00;;;;;;;;;;4995525;28;20077;-52
2022/02/16 12:33:41;;;;;;;27.52;16.65;;;;;;;;;;4995592;28;20071;-51
2022/02/16 12:36:07;;;;;;;19.23;14.38;;;;;;;;;;5010169;28;20050;-52
2022/02/16 12:38:33;;;;;;;18.92;13.68;;;;;;;;;;5015199;28;20034;-53
2022/02/16 12:41:09;;;;;;;23.23;14.95;;;;;;;;;;5014911;28;20386;-52
2022/02/16 12:43:35;;;;;;;18.02;12.32;;;;;;;;;;5014903;28;20490;-52
2022/02/16 12:46:01;;;;;;;43.50;26.65;;;;;;;;;;5021083;28;20058;-53
2022/02/16 12:48:28;;;;;;;21.42;14.18;;;;;;;;;;5028620;28;20029;-49
2022/02/16 12:51:04;;;;;;;20.38;12.70;;;;;;;;;;5028959;28;20100;-50
2022/02/16 12:53:37;;;;;;;33.67;21.38;;;;;;;;;;5024447;28;20528;-51
2022/02/16 12:56:09;;;;;;;28.88;19.45;;;;;;;;;;5014849;28;20030;-51
2022/02/16 12:58:35;;;;;;;21.50;14.75;;;;;;;;;;5014238;28;20500;-51
2022/02/16 13:01:01;;;;;;;26.52;16.67;;;;;;;;;;5013100;28;20033;-52
2022/02/16 13:03:29;;;;;;;16.73;11.73;;;;;;;;;;5015141;28;20104;-52
2022/02/16 13:05:57;;;;;;;16.52;9.68;;;;;;;;;;5025380;28;20040;-51
2022/02/16 13:08:27;;;;;;;12.98;8.52;;;;;;;;;;5023745;28;20029;-52
2022/02/16 13:10:57;;;;;;;11.50;8.60;;;;;;;;;;4998827;28;20026;-51
2022/02/16 13:13:31;;;;;;;13.00;7.88;;;;;;;;;;4992430;28;20481;-52
2022/02/16 13:15:59;;;;;;;11.88;7.05;;;;;;;;;;4991975;28;20054;-52
2022/02/16 13:18:41;;;;;;;8.30;6.28;;;;;;;;;;5023503;28;20025;-51
2022/02/16 13:21:10;;;;;;;8.90;6.60;;;;;;;;;;5019535;28;20096;-51
2022/02/16 13:23:36;;;;;;;18.38;12.73;;;;;;;;;;5021507;28;20029;-51
2022/02/16 13:26:09;;;;;;;20.15;10.23;;;;;;;;;;5017474;28;20109;-51
2022/02/16 13:28:36;;;;;;;12.48;8.63;;;;;;;;;;5032294;28;20472;-51
2022/02/16 13:31:18;;;;;;;14.55;8.60;;;;;;;;;;5031338;28;20025;-51
2022/02/16 13:34:04;;;;;;;24.75;16.70;;;;;;;;;;5019945;28;20112;-53
2022/02/16 13:36:36;;;;;;;19.92;10.25;;;;;;;;;;5023121;28;20398;-50
2022/02/16 13:39:18;;;;;;;15.90;11.23;;;;;;;;;;4996556;28;20108;-51
2022/02/16 13:41:51;;;;;;;22.90;16.30;;;;;;;;;;5014039;28;20113;-50
2022/02/16 13:44:30;;;;;;;32.72;20.10;;;;;;;;;;5014186;28;20080;-52
2022/02/16 13:47:03;;;;;;;23.13;13.27;;;;;;;;;;5019172;28;20062;-51
2022/02/16 13:49:30;;;;;;;25.70;11.48;;;;;;;;;;5019192;28;20026;-51
2022/02/16 13:52:01;;;;;;;12.90;6.18;;;;;;;;;;5013852;28;20442;-52
2022/02/16 13:54:31;;;;;;;10.02;4.88;;;;;;;;;;5014046;28;20116;-52
2022/02/16 13:56:59;;;;;;;10.60;5.07;;;;;;;;;;5013739;28;20025;-51
2022/02/16 13:59:27;;;;;;;7.95;5.45;;;;;;;;;;5014134;28;20030;-51
2022/02/16 14:02:10;;;;;;;11.32;6.03;;;;;;;;;;5020172;28;20025;-51
2022/02/16 14:04:36;;;;;;;9.10;5.78;;;;;;;;;;5024928;28;20115;-52
2022/02/16 14:07:09;;;;;;;6.63;4.10;;;;;;;;;;5026730;28;20025;-52
2022/02/16 14:09:35;;;;;;;6.20;4.40;;;;;;;;;;5025437;28;20030;-53
2022/02/16 14:12:02;;;;;;;6.88;4.20;;;;;;;;;;5023193;28;20389;-51
2022/02/16 14:14:30;;;;;;;4.60;3.30;;;;;;;;;;5022160;28;20474;-51
2022/02/16 14:16:56;;;;;;;5.50;3.72;;;;;;;;;;5020681;28;20032;-52
2022/02/16 14:19:22;;;;;;;9.25;6.13;;;;;;;;;;5019024;28;20029;-51
2022/02/16 14:21:48;;;;;;;13.77;9.88;;;;;;;;;;5025419;28;20022;-52
2022/02/16 14:24:16;;;;;;;19.38;12.07;;;;;;;;;;5021693;28;20029;-52